createdAt,value
2023-01-22T00:01:29.555Z,3.20
2023-01-22T00:04:52.701Z,3.30
2023-01-22T00:08:13.976Z,3.30
2023-01-22T00:11:35.840Z,2.77
2023-01-22T00:14:57.661Z,3.17
2023-01-22T00:18:20.207Z,2.77
2023-01-22T00:21:43.113Z,2.80
2023-01-22T00:25:06.150Z,2.83
2023-01-22T00:28:28.011Z,2.73
2023-01-22T00:31:49.847Z,2.63
2023-01-22T00:35:11.710Z,2.60
2023-01-22T00:38:35.347Z,3.40
2023-01-22T00:41:57.209Z,2.77
2023-01-22T00:45:18.943Z,2.80
2023-01-22T00:48:40.867Z,2.43
2023-01-22T00:52:02.609Z,2.27
2023-01-22T00:55:25.698Z,2.50
2023-01-22T00:58:47.334Z,2.30
2023-01-22T01:02:09.046Z,2.50
2023-01-22T01:05:30.694Z,2.33
2023-01-22T01:08:52.348Z,2.80
2023-01-22T01:12:15.487Z,2.60
2023-01-22T01:15:38.218Z,2.30
2023-01-22T01:19:00.609Z,3.00
2023-01-22T01:22:21.982Z,2.57
2023-01-22T01:25:43.357Z,2.67
2023-01-22T01:29:08.062Z,2.23
2023-01-22T01:32:29.842Z,2.87
2023-01-22T01:36:00.133Z,2.77
2023-01-22T01:39:24.060Z,2.33
2023-01-22T01:42:47.369Z,2.80
2023-01-22T01:46:19.463Z,2.50
2023-01-22T01:49:48.205Z,2.57
2023-01-22T01:53:10.192Z,3.50
2023-01-22T01:56:36.471Z,2.70
2023-01-22T02:00:00.091Z,2.50
2023-01-22T02:03:23.392Z,2.83
2023-01-22T02:06:45.182Z,2.60
2023-01-22T02:10:07.529Z,2.67
2023-01-22T02:13:32.331Z,2.70
2023-01-22T02:17:01.788Z,2.90
2023-01-22T02:20:24.575Z,2.73
2023-01-22T02:23:47.788Z,2.43
2023-01-22T02:27:09.562Z,2.90
2023-01-22T02:30:31.413Z,3.13
2023-01-22T02:33:53.255Z,2.67
2023-01-22T02:37:15.163Z,2.80
2023-01-22T02:40:48.993Z,2.93
2023-01-22T02:44:13.110Z,2.43
2023-01-22T02:47:36.009Z,3.10
2023-01-22T02:50:57.769Z,2.77
2023-01-22T02:54:19.549Z,2.80
2023-01-22T02:57:42.358Z,3.10
2023-01-22T03:01:18.972Z,2.73
2023-01-22T03:04:41.658Z,2.50
2023-01-22T03:08:05.163Z,3.00
2023-01-22T03:11:29.422Z,2.93
2023-01-22T03:15:10.154Z,2.40
2023-01-22T03:18:50.489Z,2.83
2023-01-22T03:22:15.599Z,3.03
2023-01-22T03:25:37.462Z,3.50
2023-01-22T03:28:58.682Z,3.03
2023-01-22T03:32:22.921Z,2.60
2023-01-22T03:35:44.464Z,2.73
2023-01-22T03:39:11.320Z,3.00
2023-01-22T03:42:33.010Z,2.80
2023-01-22T03:45:54.660Z,2.40
2023-01-22T03:49:19.322Z,2.63
2023-01-22T03:52:47.319Z,2.80
2023-01-22T03:56:13.139Z,2.67
2023-01-22T03:59:35.083Z,2.60
2023-01-22T04:02:56.418Z,2.40
2023-01-22T04:06:25.057Z,2.57
2023-01-22T04:09:46.592Z,2.47
2023-01-22T04:13:08.394Z,2.60
2023-01-22T04:16:31.292Z,2.30
2023-01-22T04:20:21.915Z,2.73
2023-01-22T04:24:03.727Z,2.83
2023-01-22T04:27:26.517Z,2.50
2023-01-22T04:30:53.216Z,2.70
2023-01-22T04:34:53.041Z,2.70
2023-01-22T04:38:29.864Z,2.93
2023-01-22T04:41:52.782Z,2.60
2023-01-22T04:45:14.458Z,2.60
2023-01-22T04:48:36.431Z,3.10
2023-01-22T04:51:58.288Z,2.20
2023-01-22T04:55:21.956Z,2.60
2023-01-22T04:58:54.854Z,2.30
2023-01-22T05:02:16.911Z,2.50
2023-01-22T05:05:38.666Z,2.90
2023-01-22T05:09:00.161Z,2.70
2023-01-22T05:12:24.843Z,2.70
2023-01-22T05:15:49.457Z,2.70
2023-01-22T05:19:12.095Z,3.10
2023-01-22T05:22:33.949Z,2.47
2023-01-22T05:25:55.524Z,2.70
2023-01-22T05:29:29.795Z,3.00
2023-01-22T05:33:10.435Z,3.30
2023-01-22T05:36:33.299Z,2.90
2023-01-22T05:40:00.693Z,3.00
2023-01-22T05:43:23.593Z,3.30
2023-01-22T05:46:50.435Z,3.60
2023-01-22T05:50:28.591Z,3.47
2023-01-22T05:53:58.162Z,3.40
2023-01-22T05:57:22.964Z,3.30
2023-01-22T06:00:44.842Z,3.57
2023-01-22T06:04:07.722Z,3.60
2023-01-22T06:07:32.718Z,3.50
2023-01-22T06:11:01.038Z,3.70
2023-01-22T06:14:23.434Z,3.80
2023-01-22T06:17:45.233Z,4.13
2023-01-22T06:21:08.854Z,3.53
2023-01-22T06:24:32.023Z,3.33
2023-01-22T06:27:54.913Z,4.03
2023-01-22T06:31:17.725Z,3.73
2023-01-22T06:34:39.665Z,4.10
2023-01-22T06:38:01.197Z,4.30
2023-01-22T06:41:27.882Z,3.87
2023-01-22T06:44:53.971Z,4.50
2023-01-22T06:48:18.333Z,4.20
2023-01-22T06:51:40.687Z,4.30
2023-01-22T06:55:02.174Z,3.83
2023-01-22T06:58:25.727Z,4.00
2023-01-22T07:01:47.496Z,4.60
2023-01-22T07:05:10.036Z,4.30
2023-01-22T07:08:34.475Z,4.23
2023-01-22T07:11:57.425Z,4.60
2023-01-22T07:15:20.499Z,4.40
2023-01-22T07:18:42.218Z,4.50
2023-01-22T07:22:03.995Z,4.97
2023-01-22T07:25:27.149Z,4.57
2023-01-22T07:28:51.480Z,4.30
2023-01-22T07:32:14.391Z,4.20
2023-01-22T07:35:36.099Z,4.70
2023-01-22T07:38:57.744Z,4.70
2023-01-22T07:42:18.916Z,4.60
2023-01-22T07:45:40.609Z,4.57
2023-01-22T07:49:03.368Z,4.47
2023-01-22T07:52:25.237Z,4.77
2023-01-22T07:55:47.195Z,4.70
2023-01-22T07:59:08.971Z,4.30
2023-01-22T08:02:30.261Z,4.10
2023-01-22T08:05:53.548Z,4.23
2023-01-22T08:09:16.552Z,4.77
2023-01-22T08:12:41.351Z,4.10
2023-01-22T08:16:03.089Z,4.40
2023-01-22T08:19:24.761Z,4.77
2023-01-22T08:22:48.178Z,5.37
2023-01-22T08:26:10.291Z,4.43
2023-01-22T08:29:32.090Z,4.83
2023-01-22T08:32:55.168Z,4.67
2023-01-22T08:36:16.603Z,4.83
2023-01-22T08:39:39.210Z,4.90
2023-01-22T08:43:00.601Z,5.13
2023-01-22T08:46:21.981Z,4.80
2023-01-22T08:49:43.803Z,4.97
2023-01-22T08:53:05.652Z,4.57
2023-01-22T08:56:28.933Z,4.43
2023-01-22T09:00:00.709Z,4.30
2023-01-22T09:03:23.163Z,4.37
2023-01-22T09:06:44.741Z,4.33
2023-01-22T09:10:08.269Z,4.73
2023-01-22T09:13:31.252Z,4.77
2023-01-22T09:16:53.551Z,4.30
2023-01-22T09:20:14.925Z,4.90
2023-01-22T09:23:36.839Z,4.47
2023-01-22T09:26:58.726Z,4.47
2023-01-22T09:30:22.383Z,5.03
2023-01-22T09:33:44.309Z,5.30
2023-01-22T09:37:07.902Z,5.00
2023-01-22T09:40:32.349Z,4.63
2023-01-22T09:43:58.585Z,4.70
2023-01-22T09:47:30.902Z,5.03
2023-01-22T09:50:52.552Z,5.20
2023-01-22T09:54:16.334Z,4.67
2023-01-22T09:57:47.634Z,4.77
2023-01-22T10:01:09.018Z,5.77
2023-01-22T10:04:37.672Z,5.00
2023-01-22T10:08:05.813Z,4.70
2023-01-22T10:11:27.732Z,5.00
2023-01-22T10:14:57.096Z,5.07
2023-01-22T10:18:32.352Z,5.40
2023-01-22T10:22:00.237Z,6.37
2023-01-22T10:25:22.159Z,5.90
2023-01-22T10:28:49.292Z,5.90
2023-01-22T10:32:19.922Z,5.23
2023-01-22T10:35:44.045Z,5.97
2023-01-22T10:39:11.962Z,6.00
2023-01-22T10:42:33.225Z,6.03
2023-01-22T10:45:57.196Z,6.60
2023-01-22T10:49:21.275Z,5.90
2023-01-22T10:52:45.979Z,6.30
2023-01-22T10:56:12.604Z,6.43
2023-01-22T10:59:34.962Z,6.33
2023-01-22T11:02:56.701Z,6.47
2023-01-22T11:06:21.897Z,6.83
2023-01-22T11:09:47.804Z,7.03
2023-01-22T11:13:20.989Z,6.80
2023-01-22T11:16:44.670Z,6.93
2023-01-22T11:20:17.255Z,7.43
2023-01-22T11:23:48.525Z,6.97
2023-01-22T11:27:26.958Z,7.83
2023-01-22T11:31:09.198Z,7.27
2023-01-22T11:34:43.633Z,7.57
2023-01-22T11:38:17.810Z,7.90
2023-01-22T11:41:55.781Z,8.00
2023-01-22T11:45:32.736Z,7.80
2023-01-22T11:49:06.954Z,7.70
2023-01-22T11:52:43.790Z,7.87
2023-01-22T11:56:24.080Z,7.40
2023-01-22T12:00:01.627Z,7.33
2023-01-22T12:03:52.112Z,7.63
2023-01-22T12:07:51.163Z,8.07
2023-01-22T12:11:37.313Z,7.77
2023-01-22T12:15:17.044Z,8.80
2023-01-22T12:18:59.478Z,8.30
2023-01-22T12:22:33.092Z,8.03
2023-01-22T12:26:01.582Z,8.00
2023-01-22T12:29:29.956Z,8.10
2023-01-22T12:32:56.076Z,7.97
2023-01-22T12:36:22.944Z,8.90
2023-01-22T12:39:52.482Z,8.00
2023-01-22T12:43:15.331Z,7.97
2023-01-22T12:46:49.752Z,8.40
2023-01-22T12:50:19.213Z,8.13
2023-01-22T12:53:41.302Z,8.97
2023-01-22T12:57:24.412Z,8.97
2023-01-22T13:00:47.378Z,7.83
2023-01-22T13:04:13.912Z,9.33
2023-01-22T13:07:39.703Z,8.90
2023-01-22T13:11:02.824Z,8.63
2023-01-22T13:14:27.452Z,8.10
2023-01-22T13:18:06.611Z,8.63
2023-01-22T13:21:30.578Z,8.60
2023-01-22T13:24:54.411Z,8.23
2023-01-22T13:28:18.730Z,8.97
2023-01-22T13:31:40.398Z,8.63
2023-01-22T13:35:08.095Z,8.70
2023-01-22T13:38:32.700Z,8.40
2023-01-22T13:41:57.310Z,8.03
2023-01-22T13:45:23.533Z,7.93
2023-01-22T13:48:45.258Z,8.17
2023-01-22T13:52:14.952Z,8.53
2023-01-22T13:55:37.041Z,8.80
2023-01-22T13:59:19.070Z,8.20
2023-01-22T14:02:45.563Z,8.50
2023-01-22T14:06:11.086Z,9.03
2023-01-22T14:09:35.596Z,9.53
2023-01-22T14:13:01.663Z,8.70
2023-01-22T14:16:24.179Z,9.27
2023-01-22T14:19:45.478Z,8.63
2023-01-22T14:23:07.639Z,8.43
2023-01-22T14:26:30.500Z,8.50
2023-01-22T14:29:55.779Z,8.60
2023-01-22T14:33:23.826Z,8.53
2023-01-22T14:36:48.219Z,8.93
2023-01-22T14:40:11.814Z,9.37
2023-01-22T14:43:35.873Z,9.30
2023-01-22T14:46:57.449Z,9.33
2023-01-22T14:50:19.803Z,9.60
2023-01-22T14:53:41.748Z,8.73
2023-01-22T14:57:04.191Z,9.47
2023-01-22T15:00:28.668Z,9.47
2023-01-22T15:03:50.601Z,8.83
2023-01-22T15:07:13.116Z,8.93
2023-01-22T15:10:34.654Z,9.17
2023-01-22T15:13:56.530Z,9.07
2023-01-22T15:17:21.296Z,9.70
2023-01-22T15:20:43.154Z,9.50
2023-01-22T15:24:05.049Z,9.40
2023-01-22T15:27:26.635Z,8.70
2023-01-22T15:30:50.795Z,9.50
2023-01-22T15:34:13.989Z,8.80
2023-01-22T15:37:35.577Z,8.67
2023-01-22T15:41:04.993Z,9.00
2023-01-22T15:44:26.629Z,8.60
2023-01-22T15:47:48.959Z,8.47
2023-01-22T15:51:13.856Z,8.47
2023-01-22T15:54:35.626Z,9.00
2023-01-22T15:57:59.824Z,8.43
2023-01-22T16:01:23.957Z,8.43
2023-01-22T16:04:45.446Z,9.50
2023-01-22T16:08:08.198Z,9.10
2023-01-22T16:11:31.226Z,9.07
2023-01-22T16:14:52.567Z,8.73
2023-01-22T16:18:14.248Z,8.93
2023-01-22T16:21:36.210Z,9.37
2023-01-22T16:24:58.938Z,9.07
2023-01-22T16:28:20.237Z,8.20
2023-01-22T16:31:42.096Z,8.63
2023-01-22T16:35:04.303Z,8.20
2023-01-22T16:38:25.907Z,8.07
2023-01-22T16:41:50.421Z,9.13
2023-01-22T16:45:12.036Z,8.80
2023-01-22T16:48:33.994Z,8.93
2023-01-22T16:51:57.979Z,8.80
2023-01-22T16:55:19.800Z,8.57
2023-01-22T16:58:43.262Z,8.80
2023-01-22T17:02:09.053Z,8.00
2023-01-22T17:05:30.786Z,8.37
2023-01-22T17:08:53.043Z,8.50
2023-01-22T17:12:14.758Z,7.73
2023-01-22T17:15:39.931Z,8.33
2023-01-22T17:19:03.134Z,8.70
2023-01-22T17:22:25.346Z,8.70
2023-01-22T17:25:47.958Z,9.13
2023-01-22T17:29:09.918Z,9.30
2023-01-22T17:32:32.999Z,9.97
2023-01-22T17:35:59.305Z,9.87
2023-01-22T17:39:21.316Z,10.03
2023-01-22T17:42:42.694Z,10.83
2023-01-22T17:46:08.972Z,11.17
2023-01-22T17:49:34.941Z,10.40
2023-01-22T17:52:57.117Z,11.37
2023-01-22T17:56:20.688Z,11.93
2023-01-22T17:59:42.195Z,11.90
2023-01-22T18:03:04.208Z,12.03
2023-01-22T18:06:27.610Z,11.63
2023-01-22T18:09:49.219Z,11.33
2023-01-22T18:13:11.136Z,11.03
2023-01-22T18:16:38.365Z,11.70
2023-01-22T18:19:59.994Z,10.67
2023-01-22T18:23:23.401Z,11.73
2023-01-22T18:26:45.321Z,11.33
2023-01-22T18:30:08.629Z,11.10
2023-01-22T18:33:30.637Z,12.03
2023-01-22T18:36:52.579Z,11.03
2023-01-22T18:40:16.679Z,11.20
2023-01-22T18:43:39.011Z,11.23
2023-01-22T18:47:01.795Z,10.93
2023-01-22T18:50:23.683Z,11.17
2023-01-22T18:53:45.561Z,10.40
2023-01-22T18:57:08.208Z,10.90
2023-01-22T19:00:30.171Z,8.53
2023-01-22T19:03:53.961Z,9.33
2023-01-22T19:07:15.453Z,9.97
2023-01-22T19:10:37.129Z,10.37
2023-01-22T19:14:00.918Z,9.93
2023-01-22T19:17:22.391Z,10.00
2023-01-22T19:20:44.058Z,10.27
2023-01-22T19:24:06.434Z,10.83
2023-01-22T19:27:29.740Z,9.80
2023-01-22T19:30:53.086Z,10.03
2023-01-22T19:34:23.128Z,9.13
2023-01-22T19:37:45.008Z,9.53
2023-01-22T19:41:08.660Z,9.97
2023-01-22T19:44:30.572Z,9.23
2023-01-22T19:47:55.500Z,9.97
2023-01-22T19:51:18.942Z,8.63
2023-01-22T19:54:47.200Z,9.43
2023-01-22T19:58:08.823Z,9.33
2023-01-22T20:01:31.110Z,9.87
2023-01-22T20:04:54.413Z,8.93
2023-01-22T20:08:16.810Z,9.50
2023-01-22T20:11:38.802Z,10.47
2023-01-22T20:15:00.621Z,9.63
2023-01-22T20:18:22.766Z,10.20
2023-01-22T20:21:45.621Z,9.77
2023-01-22T20:25:09.149Z,10.40
2023-01-22T20:28:30.692Z,9.93
2023-01-22T20:31:53.321Z,10.73
2023-01-22T20:35:16.230Z,10.30
2023-01-22T20:38:39.491Z,9.77
2023-01-22T20:42:01.145Z,9.80
2023-01-22T20:45:23.084Z,9.20
2023-01-22T20:48:45.460Z,10.53
2023-01-22T20:52:07.250Z,10.20
2023-01-22T20:55:30.172Z,9.63
2023-01-22T20:58:57.162Z,9.53
2023-01-22T21:02:18.785Z,11.03
2023-01-22T21:05:41.421Z,9.93
2023-01-22T21:09:03.680Z,10.57
2023-01-22T21:12:27.289Z,9.87
2023-01-22T21:15:49.078Z,10.87
2023-01-22T21:19:15.805Z,9.47
2023-01-22T21:22:37.271Z,9.83
2023-01-22T21:26:04.770Z,9.50
2023-01-22T21:29:27.886Z,9.90
2023-01-22T21:32:51.639Z,9.53
2023-01-22T21:36:16.377Z,9.90
2023-01-22T21:39:44.928Z,10.20
2023-01-22T21:43:24.058Z,10.07
2023-01-22T21:46:48.153Z,9.90
2023-01-22T21:50:11.383Z,10.00
2023-01-22T21:53:33.071Z,10.67
2023-01-22T21:56:54.671Z,10.37
2023-01-22T22:00:17.151Z,10.30
2023-01-22T22:03:40.583Z,8.80
2023-01-22T22:07:02.250Z,10.13
2023-01-22T22:10:23.645Z,9.00
2023-01-22T22:13:45.523Z,9.77
2023-01-22T22:17:08.342Z,9.17
2023-01-22T22:20:33.643Z,9.40
2023-01-22T22:23:57.536Z,9.87
2023-01-22T22:27:19.147Z,9.67
2023-01-22T22:30:40.941Z,9.97
2023-01-22T22:34:02.738Z,9.90
2023-01-22T22:37:25.703Z,9.17
2023-01-22T22:40:58.933Z,9.70
2023-01-22T22:44:20.510Z,9.57
2023-01-22T22:47:42.308Z,9.90
2023-01-22T22:51:11.410Z,9.17
2023-01-22T22:54:34.481Z,9.97
2023-01-22T22:57:56.291Z,9.63
2023-01-22T23:01:19.306Z,9.90
2023-01-22T23:04:40.854Z,10.67
2023-01-22T23:08:02.683Z,10.63
2023-01-22T23:11:28.214Z,10.30
2023-01-22T23:14:49.655Z,9.10
2023-01-22T23:18:11.541Z,10.80
2023-01-22T23:21:35.057Z,10.57
2023-01-22T23:24:56.655Z,9.03
2023-01-22T23:28:19.362Z,9.50
2023-01-22T23:31:41.859Z,9.63
2023-01-22T23:35:03.732Z,10.60
2023-01-22T23:38:25.419Z,9.77
2023-01-22T23:41:47.404Z,10.80
2023-01-22T23:45:11.951Z,10.40
2023-01-22T23:48:33.696Z,10.60
2023-01-22T23:51:55.636Z,10.37
2023-01-22T23:55:18.085Z,10.83
2023-01-22T23:58:40.640Z,10.07
